createdAt,value
2023-03-17T00:00:26.604Z,0.93
2023-03-17T00:05:38.963Z,0.80
2023-03-17T00:10:42.779Z,1.08
2023-03-17T00:15:51.174Z,1.52
2023-03-17T00:20:54.749Z,1.42
2023-03-17T00:25:58.428Z,0.95
2023-03-17T00:31:03.653Z,1.33
2023-03-17T00:36:07.965Z,0.70
2023-03-17T00:41:12.855Z,0.60
2023-03-17T00:46:28.920Z,1.10
2023-03-17T00:51:34.009Z,1.02
2023-03-17T00:56:39.474Z,0.88
2023-03-17T01:01:43.039Z,0.80
2023-03-17T01:06:46.542Z,1.38
2023-03-17T01:11:49.981Z,1.00
2023-03-17T01:16:53.672Z,0.70
2023-03-17T01:21:56.827Z,1.42
2023-03-17T01:27:00.262Z,0.98
2023-03-17T01:32:03.448Z,0.95
2023-03-17T01:37:07.307Z,1.30
2023-03-17T01:42:10.920Z,0.75
2023-03-17T01:47:16.991Z,0.95
2023-03-17T01:52:23.366Z,0.82
2023-03-17T01:57:56.808Z,0.75
2023-03-17T02:03:00.199Z,1.20
2023-03-17T02:08:09.368Z,1.05
2023-03-17T02:13:14.194Z,1.05
2023-03-17T02:18:19.570Z,0.80
2023-03-17T02:23:24.020Z,0.80
2023-03-17T02:28:31.981Z,1.25
2023-03-17T02:33:35.575Z,1.13
2023-03-17T02:38:38.619Z,1.65
2023-03-17T02:43:43.198Z,1.08
2023-03-17T02:48:47.092Z,0.90
2023-03-17T02:53:50.512Z,0.98
2023-03-17T02:58:54.884Z,1.02
2023-03-17T03:03:59.701Z,1.20
2023-03-17T03:09:04.169Z,0.90
2023-03-17T03:14:08.496Z,0.95
2023-03-17T03:19:12.883Z,1.27
2023-03-17T03:24:16.309Z,1.00
2023-03-17T03:29:19.982Z,1.00
2023-03-17T03:34:23.415Z,1.15
2023-03-17T03:39:27.186Z,0.90
2023-03-17T03:44:30.294Z,1.33
2023-03-17T03:49:33.942Z,1.10
2023-03-17T03:54:37.115Z,1.20
2023-03-17T03:59:40.844Z,0.80
2023-03-17T04:04:44.527Z,1.00
2023-03-17T04:09:53.620Z,1.00
2023-03-17T04:14:57.646Z,1.00
2023-03-17T04:20:00.951Z,1.10
2023-03-17T04:25:04.334Z,1.45
2023-03-17T04:30:08.836Z,1.33
2023-03-17T04:35:15.874Z,1.10
2023-03-17T04:40:19.928Z,0.98
2023-03-17T04:45:23.074Z,1.25
2023-03-17T04:50:26.831Z,1.65
2023-03-17T04:55:29.952Z,1.00
2023-03-17T05:00:39.007Z,1.15
2023-03-17T05:05:42.654Z,1.48
2023-03-17T05:10:46.383Z,1.10
2023-03-17T05:15:51.931Z,1.20
2023-03-17T05:20:55.175Z,2.10
2023-03-17T05:25:58.682Z,3.60
2023-03-17T05:31:01.958Z,2.83
2023-03-17T05:36:05.981Z,2.90
2023-03-17T05:41:10.898Z,1.80
2023-03-17T05:46:14.085Z,1.55
2023-03-17T05:51:18.203Z,1.50
2023-03-17T05:56:22.241Z,1.70
2023-03-17T06:01:25.606Z,1.33
2023-03-17T06:06:29.243Z,1.30
2023-03-17T06:11:33.105Z,1.33
2023-03-17T06:16:36.253Z,1.30
2023-03-17T06:21:39.883Z,1.13
2023-03-17T06:26:44.003Z,1.27
2023-03-17T06:31:51.140Z,1.42
2023-03-17T06:36:54.826Z,1.40
2023-03-17T06:41:59.064Z,1.17
2023-03-17T06:47:02.472Z,1.10
2023-03-17T06:52:05.787Z,1.35
2023-03-17T06:57:09.981Z,1.20
2023-03-17T07:02:13.725Z,1.02
2023-03-17T07:07:17.103Z,1.27
2023-03-17T07:12:21.180Z,0.95
2023-03-17T07:17:24.333Z,1.10
2023-03-17T07:22:28.012Z,1.38
2023-03-17T07:27:32.506Z,1.52
2023-03-17T07:32:36.583Z,1.52
2023-03-17T07:37:39.838Z,1.17
2023-03-17T07:42:43.035Z,1.55
2023-03-17T07:47:47.074Z,1.98
2023-03-17T07:52:51.100Z,1.48
2023-03-17T07:57:54.501Z,1.77
2023-03-17T08:03:09.482Z,1.13
2023-03-17T08:08:14.310Z,0.90
2023-03-17T08:13:18.045Z,1.17
2023-03-17T08:18:21.411Z,1.55
2023-03-17T08:23:31.175Z,1.20
2023-03-17T08:28:38.830Z,1.40
2023-03-17T08:33:46.972Z,1.80
2023-03-17T08:38:51.620Z,1.42
2023-03-17T08:43:56.665Z,1.77
2023-03-17T08:49:01.329Z,1.10
2023-03-17T08:54:07.205Z,1.58
2023-03-17T08:59:10.940Z,1.80
2023-03-17T09:04:15.726Z,1.48
2023-03-17T09:09:22.145Z,1.45
2023-03-17T09:14:26.060Z,1.30
2023-03-17T09:19:29.553Z,1.58
2023-03-17T09:24:33.293Z,1.60
2023-03-17T09:29:36.519Z,1.75
2023-03-17T09:34:39.765Z,2.10
2023-03-17T09:39:43.045Z,1.50
2023-03-17T09:45:26.855Z,1.48
2023-03-17T09:50:45.771Z,1.98
2023-03-17T09:55:55.334Z,1.60
2023-03-17T10:01:00.192Z,1.75
2023-03-17T10:06:34.031Z,1.60
2023-03-17T10:11:46.323Z,1.73
2023-03-17T10:17:02.153Z,1.80
2023-03-17T10:22:16.450Z,2.40
2023-03-17T10:27:19.972Z,2.20
2023-03-17T10:32:23.100Z,2.40
2023-03-17T10:37:29.971Z,2.58
2023-03-17T10:42:33.385Z,1.60
2023-03-17T10:47:48.393Z,2.35
2023-03-17T10:53:05.179Z,1.65
2023-03-17T10:58:16.904Z,1.83
2023-03-17T11:03:36.249Z,3.38
2023-03-17T11:08:42.305Z,1.70
2023-03-17T11:13:45.439Z,1.55
2023-03-17T11:18:51.837Z,1.90
2023-03-17T11:29:20.026Z,1.60
2023-03-17T11:34:47.279Z,1.70
2023-03-17T11:40:10.586Z,1.40
2023-03-17T11:45:35.984Z,1.90
2023-03-17T11:50:50.987Z,1.58
2023-03-17T11:56:14.101Z,1.40
2023-03-17T12:01:24.604Z,1.90
2023-03-17T12:06:39.218Z,1.70
2023-03-17T12:11:45.714Z,1.30
2023-03-17T12:17:36.952Z,1.50
2023-03-17T12:22:51.141Z,1.45
2023-03-17T12:28:04.713Z,1.52
2023-03-17T12:33:20.446Z,1.40
2023-03-17T12:38:43.909Z,1.50
2023-03-17T12:44:00.132Z,1.80
2023-03-17T12:49:38.006Z,1.50
2023-03-17T12:54:46.785Z,1.60
2023-03-17T12:59:58.671Z,1.55
2023-03-17T13:05:08.202Z,1.65
2023-03-17T13:10:20.780Z,1.25
2023-03-17T13:15:24.469Z,1.20
2023-03-17T13:20:38.471Z,2.20
2023-03-17T13:25:42.063Z,1.70
2023-03-17T13:30:57.622Z,1.70
2023-03-17T13:36:31.806Z,2.20
2023-03-17T13:41:38.952Z,1.48
2023-03-17T13:46:49.514Z,2.22
2023-03-17T13:51:59.878Z,1.48
2023-03-17T13:57:28.779Z,1.38
2023-03-17T14:02:36.744Z,1.48
2023-03-17T14:07:59.147Z,1.17
2023-03-17T14:13:25.953Z,1.50
2023-03-17T14:18:50.831Z,3.13
2023-03-17T14:23:56.274Z,1.50
2023-03-17T14:29:05.188Z,1.38
2023-03-17T14:34:15.011Z,1.77
2023-03-17T14:39:24.392Z,1.00
2023-03-17T14:44:29.059Z,1.92
2023-03-17T14:49:33.778Z,1.73
2023-03-17T14:54:45.787Z,1.90
2023-03-17T15:00:04.669Z,1.50
2023-03-17T15:05:29.862Z,2.08
2023-03-17T15:10:42.789Z,2.15
2023-03-17T15:15:46.155Z,1.50
2023-03-17T15:20:50.320Z,1.25
2023-03-17T15:25:58.119Z,1.30
2023-03-17T15:31:13.361Z,1.10
2023-03-17T15:36:33.156Z,1.23
2023-03-17T15:41:37.185Z,1.90
2023-03-17T15:46:40.285Z,1.58
2023-03-17T15:51:44.025Z,1.75
2023-03-17T15:56:47.416Z,1.75
2023-03-17T16:01:50.992Z,1.33
2023-03-17T16:06:55.187Z,5.15
2023-03-17T16:11:58.615Z,2.58
2023-03-17T16:17:02.441Z,2.60
2023-03-17T16:22:06.311Z,1.92
2023-03-17T16:27:19.725Z,2.65
2023-03-17T16:32:22.845Z,2.85
2023-03-17T16:37:27.205Z,3.17
2023-03-17T16:42:32.545Z,2.53
2023-03-17T16:47:36.220Z,2.38
2023-03-17T16:52:39.430Z,3.50
2023-03-17T16:57:45.853Z,2.25
2023-03-17T17:02:50.036Z,3.13
2023-03-17T17:07:56.225Z,2.85
2023-03-17T17:13:00.020Z,2.90
2023-03-17T17:18:13.837Z,2.80
2023-03-17T17:23:23.415Z,2.88
2023-03-17T17:28:27.441Z,2.38
2023-03-17T17:33:30.635Z,2.60
2023-03-17T17:38:34.407Z,2.15
2023-03-17T17:43:37.996Z,2.25
2023-03-17T17:48:41.399Z,2.83
2023-03-17T17:53:45.446Z,2.55
2023-03-17T17:58:50.233Z,2.40
2023-03-17T18:03:53.410Z,2.47
2023-03-17T18:08:56.848Z,2.30
2023-03-17T18:14:00.197Z,2.55
2023-03-17T18:19:06.465Z,5.43
2023-03-17T18:24:10.223Z,3.50
2023-03-17T18:29:13.712Z,2.78
2023-03-17T18:34:24.574Z,3.40
2023-03-17T18:39:28.823Z,3.70
2023-03-17T18:44:33.340Z,4.57
2023-03-17T18:49:36.456Z,2.60
2023-03-17T18:54:39.613Z,3.28
2023-03-17T18:59:43.303Z,3.53
2023-03-17T19:04:48.148Z,3.75
2023-03-17T19:09:51.360Z,2.83
2023-03-17T19:14:55.167Z,3.33
2023-03-17T19:19:58.707Z,3.65
2023-03-17T19:25:04.692Z,4.28
2023-03-17T19:30:09.118Z,3.70
2023-03-17T19:35:12.914Z,4.10
2023-03-17T19:40:16.447Z,4.50
2023-03-17T19:45:19.994Z,4.75
2023-03-17T19:50:24.070Z,3.63
2023-03-17T19:55:30.707Z,3.15
2023-03-17T20:00:34.458Z,4.40
2023-03-17T20:05:37.664Z,4.90
2023-03-17T20:10:41.607Z,4.30
2023-03-17T20:15:45.385Z,4.70
2023-03-17T20:20:54.174Z,4.95
2023-03-17T20:25:58.169Z,5.10
2023-03-17T20:31:03.311Z,5.90
2023-03-17T20:36:06.863Z,8.70
2023-03-17T20:41:14.081Z,11.50
2023-03-17T20:46:19.893Z,10.35
2023-03-17T20:51:24.098Z,11.07
2023-03-17T20:56:30.103Z,9.52
2023-03-17T21:01:36.625Z,8.55
2023-03-17T21:06:41.723Z,9.03
2023-03-17T21:11:46.008Z,6.72
2023-03-17T21:16:49.671Z,7.70
2023-03-17T21:21:52.834Z,10.80
2023-03-17T21:26:56.198Z,13.57
2023-03-17T21:32:02.047Z,10.20
2023-03-17T21:37:06.540Z,8.25
2023-03-17T21:42:10.207Z,6.60
2023-03-17T21:47:13.427Z,4.78
2023-03-17T21:52:16.640Z,4.65
2023-03-17T21:57:19.757Z,4.63
2023-03-17T22:02:24.095Z,3.97
2023-03-17T22:07:28.375Z,3.92
2023-03-17T22:12:32.642Z,4.13
2023-03-17T22:17:37.102Z,4.20
2023-03-17T22:22:40.992Z,3.92
2023-03-17T22:27:44.438Z,3.88
2023-03-17T22:32:49.227Z,3.85
2023-03-17T22:37:52.749Z,3.55
2023-03-17T22:42:57.853Z,3.40
2023-03-17T22:48:01.659Z,4.75
2023-03-17T22:53:05.270Z,4.57
2023-03-17T22:58:08.893Z,4.43
2023-03-17T23:03:12.561Z,4.35
2023-03-17T23:08:18.222Z,3.65
2023-03-17T23:13:22.722Z,3.72
2023-03-17T23:18:26.395Z,3.30
2023-03-17T23:23:29.688Z,3.60
2023-03-17T23:28:33.473Z,2.72
2023-03-17T23:33:36.910Z,3.85
2023-03-17T23:38:42.895Z,3.20
2023-03-17T23:43:47.082Z,4.35
2023-03-17T23:48:50.607Z,3.92
2023-03-17T23:53:54.734Z,3.28
2023-03-17T23:58:58.015Z,3.50
